createdAt,value
2018-07-22T00:00:05.186Z,18.20
2018-07-22T00:02:33.669Z,18.20
2018-07-22T00:05:02.133Z,18.20
2018-07-22T00:07:30.581Z,18.20
2018-07-22T00:09:59.055Z,18.20
2018-07-22T00:12:27.564Z,18.20
2018-07-22T00:14:56.012Z,18.10
2018-07-22T00:17:24.478Z,18.00
2018-07-22T00:22:21.251Z,18.00
2018-07-22T00:24:49.909Z,18.00
2018-07-22T00:27:18.489Z,18.10
2018-07-22T00:32:15.145Z,18.00
2018-07-22T00:34:43.550Z,18.00
2018-07-22T00:37:11.923Z,18.00
2018-07-22T00:39:40.356Z,18.00
2018-07-22T00:42:08.915Z,18.00
2018-07-22T00:44:37.473Z,18.00
2018-07-22T00:47:06.184Z,18.00
2018-07-22T00:49:34.653Z,17.90
2018-07-22T00:52:03.190Z,17.90
2018-07-22T00:54:31.710Z,17.90
2018-07-22T00:57:00.136Z,17.90
2018-07-22T00:59:28.560Z,17.90
2018-07-22T01:01:57.078Z,17.90
2018-07-22T01:04:25.517Z,17.90
2018-07-22T01:06:53.944Z,17.90
2018-07-22T01:09:22.413Z,17.90
2018-07-22T01:11:50.805Z,17.90
2018-07-22T01:14:19.209Z,17.90
2018-07-22T01:16:47.593Z,17.80
2018-07-22T01:19:16.012Z,17.80
2018-07-22T01:21:44.449Z,17.90
2018-07-22T01:24:12.834Z,17.90
2018-07-22T01:29:09.583Z,17.90
2018-07-22T01:31:38.016Z,17.90
2018-07-22T01:34:06.470Z,17.90
2018-07-22T01:36:34.946Z,17.80
2018-07-22T01:39:03.782Z,17.80
2018-07-22T01:41:32.361Z,17.90
2018-07-22T01:44:00.834Z,17.90
2018-07-22T01:46:29.995Z,17.80
2018-07-22T01:48:58.444Z,17.80
2018-07-22T01:51:26.975Z,17.80
2018-07-22T01:53:55.423Z,17.70
2018-07-22T01:56:23.933Z,17.70
2018-07-22T01:58:52.361Z,17.70
2018-07-22T02:01:20.813Z,17.70
2018-07-22T02:03:49.204Z,17.70
2018-07-22T02:06:17.614Z,17.70
2018-07-22T02:08:46.074Z,17.70
2018-07-22T02:11:14.452Z,17.70
2018-07-22T02:13:42.938Z,17.70
2018-07-22T02:16:11.329Z,17.70
2018-07-22T02:18:39.787Z,17.70
2018-07-22T02:21:08.281Z,17.70
2018-07-22T02:23:37.824Z,17.70
2018-07-22T02:26:06.355Z,17.70
2018-07-22T02:28:34.798Z,17.80
2018-07-22T02:31:03.251Z,17.80
2018-07-22T02:33:31.713Z,17.80
2018-07-22T02:36:00.159Z,17.80
2018-07-22T02:38:28.568Z,17.80
2018-07-22T02:40:56.974Z,17.80
2018-07-22T02:43:25.357Z,17.80
2018-07-22T02:45:53.810Z,17.90
2018-07-22T02:48:22.326Z,17.80
2018-07-22T02:50:50.717Z,17.80
2018-07-22T02:53:19.150Z,17.80
2018-07-22T02:55:47.614Z,17.90
2018-07-22T02:58:16.030Z,17.80
2018-07-22T03:00:44.493Z,17.80
2018-07-22T03:03:13.044Z,17.80
2018-07-22T03:05:41.441Z,17.70
2018-07-22T03:08:09.816Z,17.60
2018-07-22T03:10:38.214Z,17.70
2018-07-22T03:13:06.628Z,17.70
2018-07-22T03:15:35.033Z,17.60
2018-07-22T03:18:03.447Z,17.60
2018-07-22T03:20:38.518Z,17.60
2018-07-22T03:23:06.908Z,17.60
2018-07-22T03:25:35.295Z,17.60
2018-07-22T03:28:03.800Z,17.60
2018-07-22T03:30:32.196Z,17.60
2018-07-22T03:33:00.577Z,17.60
2018-07-22T03:35:28.954Z,17.60
2018-07-22T03:37:57.366Z,17.60
2018-07-22T03:40:25.778Z,17.60
2018-07-22T03:42:54.369Z,17.60
2018-07-22T03:45:22.800Z,17.60
2018-07-22T03:47:51.382Z,17.60
2018-07-22T03:50:20.135Z,17.60
2018-07-22T03:52:48.591Z,17.60
2018-07-22T03:55:16.998Z,17.60
2018-07-22T03:57:45.375Z,17.60
2018-07-22T04:00:13.901Z,17.60
2018-07-22T04:02:42.279Z,17.60
2018-07-22T04:05:10.683Z,17.60
2018-07-22T04:07:39.066Z,17.60
2018-07-22T04:10:07.499Z,17.60
2018-07-22T04:12:35.904Z,17.60
2018-07-22T04:15:04.725Z,17.60
2018-07-22T04:17:33.526Z,17.60
2018-07-22T04:20:01.957Z,17.60
2018-07-22T04:22:30.390Z,17.60
2018-07-22T04:24:58.834Z,17.60
2018-07-22T04:27:27.326Z,17.60
2018-07-22T04:29:55.876Z,17.70
2018-07-22T04:32:24.248Z,17.70
2018-07-22T04:34:52.628Z,17.70
2018-07-22T04:37:21.075Z,17.70
2018-07-22T04:39:49.496Z,17.70
2018-07-22T04:42:17.859Z,17.60
2018-07-22T04:44:46.240Z,17.70
2018-07-22T04:47:14.650Z,17.70
2018-07-22T04:49:43.028Z,17.70
2018-07-22T04:52:11.438Z,17.70
2018-07-22T04:54:39.886Z,17.70
2018-07-22T04:57:08.321Z,17.70
2018-07-22T04:59:36.759Z,17.70
2018-07-22T05:02:05.269Z,17.70
2018-07-22T05:04:33.856Z,17.80
2018-07-22T05:07:02.339Z,17.80
2018-07-22T05:11:59.973Z,17.80
2018-07-22T05:14:28.346Z,17.80
2018-07-22T05:16:56.829Z,17.80
2018-07-22T05:19:25.290Z,17.80
2018-07-22T05:21:53.675Z,17.70
2018-07-22T05:24:22.040Z,17.60
2018-07-22T05:26:50.494Z,17.60
2018-07-22T05:29:18.949Z,17.60
2018-07-22T05:31:47.411Z,17.60
2018-07-22T05:34:15.859Z,17.60
2018-07-22T05:36:44.248Z,17.60
2018-07-22T05:39:13.129Z,17.50
2018-07-22T05:41:42.320Z,17.50
2018-07-22T05:44:10.810Z,17.50
2018-07-22T05:46:39.254Z,17.50
2018-07-22T05:49:07.668Z,17.50
2018-07-22T05:51:36.036Z,17.50
2018-07-22T05:54:04.544Z,17.60
2018-07-22T05:56:33.272Z,17.50
2018-07-22T05:59:01.769Z,17.60
2018-07-22T06:01:30.160Z,17.60
2018-07-22T06:03:58.586Z,17.60
2018-07-22T06:06:26.991Z,17.60
2018-07-22T06:08:55.411Z,17.60
2018-07-22T06:11:23.888Z,17.60
2018-07-22T06:13:52.315Z,17.60
2018-07-22T06:16:20.854Z,17.70
2018-07-22T06:18:49.257Z,17.70
2018-07-22T06:21:17.722Z,17.70
2018-07-22T06:23:46.195Z,17.60
2018-07-22T06:26:14.638Z,17.70
2018-07-22T06:28:43.089Z,17.70
2018-07-22T06:31:11.548Z,17.70
2018-07-22T06:33:40.003Z,17.70
2018-07-22T06:36:08.452Z,17.60
2018-07-22T06:38:37.151Z,17.60
2018-07-22T06:43:33.843Z,17.60
2018-07-22T06:46:02.261Z,17.60
2018-07-22T06:48:30.710Z,17.60
2018-07-22T06:50:59.206Z,17.70
2018-07-22T06:53:27.676Z,17.70
2018-07-22T06:55:56.150Z,17.60
2018-07-22T06:58:24.703Z,17.60
2018-07-22T07:00:53.290Z,17.60
2018-07-22T07:03:21.830Z,17.60
2018-07-22T07:05:50.346Z,17.70
2018-07-22T07:08:19.008Z,17.70
2018-07-22T07:10:47.487Z,17.70
2018-07-22T07:13:15.922Z,17.80
2018-07-22T07:15:44.446Z,17.80
2018-07-22T07:18:12.941Z,17.90
2018-07-22T07:20:41.407Z,17.90
2018-07-22T07:23:09.829Z,17.90
2018-07-22T07:25:38.273Z,18.10
2018-07-22T07:28:06.758Z,18.10
2018-07-22T07:30:35.213Z,18.20
2018-07-22T07:33:03.740Z,18.30
2018-07-22T07:35:32.262Z,18.30
2018-07-22T07:38:00.917Z,18.30
2018-07-22T07:40:29.478Z,18.40
2018-07-22T07:42:58.144Z,18.40
2018-07-22T07:45:26.606Z,18.40
2018-07-22T07:47:55.048Z,18.40
2018-07-22T07:50:23.547Z,18.50
2018-07-22T07:52:52.026Z,18.60
2018-07-22T07:55:22.348Z,18.70
2018-07-22T07:57:51.007Z,18.80
2018-07-22T08:00:23.885Z,18.80
2018-07-22T08:02:52.334Z,18.80
2018-07-22T08:05:20.887Z,18.90
2018-07-22T08:07:49.429Z,19.00
2018-07-22T08:10:17.937Z,19.00
2018-07-22T08:12:46.448Z,19.00
2018-07-22T08:15:14.927Z,18.90
2018-07-22T08:17:43.377Z,18.90
2018-07-22T08:20:11.955Z,18.80
2018-07-22T08:22:40.468Z,18.90
2018-07-22T08:25:09.061Z,18.90
2018-07-22T08:27:37.651Z,18.70
2018-07-22T08:30:06.738Z,18.70
2018-07-22T08:32:35.384Z,18.60
2018-07-22T08:35:03.965Z,18.50
2018-07-22T08:37:32.551Z,18.50
2018-07-22T08:40:01.269Z,18.60
2018-07-22T08:42:29.775Z,18.70
2018-07-22T08:47:26.531Z,18.80
2018-07-22T08:49:55.193Z,18.70
2018-07-22T08:52:23.924Z,18.80
2018-07-22T08:54:52.497Z,18.90
2018-07-22T08:59:49.381Z,19.20
2018-07-22T09:02:18.152Z,19.20
2018-07-22T09:04:46.760Z,19.30
2018-07-22T09:07:15.285Z,19.40
2018-07-22T09:09:44.139Z,19.40
2018-07-22T09:12:12.911Z,19.30
2018-07-22T09:14:41.602Z,19.20
2018-07-22T09:17:10.611Z,19.30
2018-07-22T09:19:39.133Z,19.50
2018-07-22T09:22:07.684Z,19.70
2018-07-22T09:24:36.185Z,19.70
2018-07-22T09:27:04.850Z,19.90
2018-07-22T09:29:33.414Z,20.10
2018-07-22T09:32:02.009Z,20.00
2018-07-22T09:34:30.615Z,20.20
2018-07-22T09:36:59.231Z,20.20
2018-07-22T09:39:27.894Z,20.20
2018-07-22T09:41:56.940Z,20.20
2018-07-22T09:44:25.492Z,19.90
2018-07-22T09:46:54.264Z,19.60
2018-07-22T09:49:23.044Z,19.50
2018-07-22T09:51:52.665Z,19.50
2018-07-22T09:54:21.460Z,19.50
2018-07-22T09:56:50.026Z,19.50
2018-07-22T09:59:18.635Z,19.60
2018-07-22T10:01:47.240Z,19.80
2018-07-22T10:04:15.911Z,19.90
2018-07-22T10:06:44.471Z,20.10
2018-07-22T10:09:13.098Z,20.20
2018-07-22T10:11:41.682Z,20.40
2018-07-22T10:14:10.225Z,20.40
2018-07-22T10:16:39.377Z,20.50
2018-07-22T10:19:07.979Z,20.40
2018-07-22T10:21:36.511Z,20.40
2018-07-22T10:24:05.209Z,20.20
2018-07-22T10:26:33.741Z,20.00
2018-07-22T10:29:02.477Z,20.10
2018-07-22T10:31:31.135Z,20.30
2018-07-22T10:33:59.861Z,20.30
2018-07-22T10:36:28.458Z,20.50
2018-07-22T10:38:57.029Z,20.60
2018-07-22T10:41:25.500Z,20.70
2018-07-22T10:43:54.024Z,20.70
2018-07-22T10:46:22.591Z,20.70
2018-07-22T10:48:51.123Z,20.60
2018-07-22T10:51:19.658Z,20.40
2018-07-22T10:53:48.229Z,20.10
2018-07-22T10:56:16.909Z,20.00
2018-07-22T10:58:45.378Z,20.30
2018-07-22T11:01:14.159Z,20.60
2018-07-22T11:03:42.640Z,20.70
2018-07-22T11:06:11.324Z,20.90
2018-07-22T11:08:39.907Z,20.90
2018-07-22T11:11:08.422Z,21.20
2018-07-22T11:13:37.389Z,21.40
2018-07-22T11:16:06.138Z,21.30
2018-07-22T11:18:34.706Z,21.30
2018-07-22T11:21:04.144Z,21.30
2018-07-22T11:23:32.611Z,21.20
2018-07-22T11:28:29.802Z,21.40
2018-07-22T11:30:58.393Z,21.40
2018-07-22T11:33:26.964Z,21.50
2018-07-22T11:35:55.496Z,21.40
2018-07-22T11:38:24.096Z,21.30
2018-07-22T11:43:20.928Z,21.60
2018-07-22T11:45:49.449Z,21.80
2018-07-22T11:48:18.005Z,21.90
2018-07-22T11:50:46.629Z,21.80
2018-07-22T11:53:15.407Z,21.90
2018-07-22T11:55:43.967Z,21.90
2018-07-22T11:58:12.654Z,21.70
2018-07-22T12:00:41.690Z,21.60
2018-07-22T12:03:10.452Z,21.20
2018-07-22T12:05:39.132Z,21.30
2018-07-22T12:08:07.788Z,21.60
2018-07-22T12:10:36.374Z,21.30
2018-07-22T12:13:05.448Z,21.10
2018-07-22T12:15:34.028Z,20.90
2018-07-22T12:18:02.687Z,20.80
2018-07-22T12:20:31.426Z,20.80
2018-07-22T12:23:00.128Z,20.80
2018-07-22T12:25:28.759Z,21.00
2018-07-22T12:27:57.492Z,21.10
2018-07-22T12:30:26.119Z,21.10
2018-07-22T12:32:54.741Z,21.20
2018-07-22T12:35:23.242Z,21.00
2018-07-22T12:37:52.101Z,20.80
2018-07-22T12:40:20.724Z,21.00
2018-07-22T12:42:49.529Z,21.00
2018-07-22T12:45:18.515Z,21.10
2018-07-22T12:47:47.308Z,20.90
2018-07-22T12:50:16.135Z,21.10
2018-07-22T12:52:44.878Z,21.20
2018-07-22T12:55:13.506Z,21.40
2018-07-22T12:57:42.102Z,21.70
2018-07-22T13:00:10.784Z,21.90
2018-07-22T13:02:39.381Z,21.70
2018-07-22T13:05:08.024Z,21.50
2018-07-22T13:07:36.663Z,21.40
2018-07-22T13:10:12.041Z,21.50
2018-07-22T13:12:41.385Z,21.50
2018-07-22T13:15:10.837Z,21.50
2018-07-22T13:17:40.253Z,21.50
2018-07-22T13:20:08.853Z,21.60
2018-07-22T13:22:37.919Z,21.20
2018-07-22T13:25:06.819Z,21.10
2018-07-22T13:27:35.521Z,20.90
2018-07-22T13:30:05.154Z,21.10
2018-07-22T13:32:33.703Z,21.50
2018-07-22T13:35:02.476Z,21.60
2018-07-22T13:37:31.097Z,22.00
2018-07-22T13:39:59.693Z,22.50
2018-07-22T13:42:28.225Z,23.00
2018-07-22T13:44:56.884Z,23.30
2018-07-22T13:47:25.557Z,22.50
2018-07-22T13:49:54.092Z,22.20
2018-07-22T13:52:22.708Z,22.60
2018-07-22T13:54:51.381Z,22.30
2018-07-22T13:57:19.952Z,22.40
2018-07-22T13:59:48.546Z,22.80
2018-07-22T14:02:17.091Z,23.00
2018-07-22T14:04:45.776Z,23.40
2018-07-22T14:07:14.522Z,23.20
2018-07-22T14:09:43.352Z,23.50
2018-07-22T14:12:11.930Z,23.90
2018-07-22T14:14:40.564Z,23.90
2018-07-22T14:17:09.173Z,24.00
2018-07-22T14:19:37.772Z,23.90
2018-07-22T14:22:06.471Z,23.50
2018-07-22T14:24:35.186Z,23.30
2018-07-22T14:27:03.723Z,23.20
2018-07-22T14:29:32.293Z,23.10
2018-07-22T14:32:00.925Z,23.60
2018-07-22T14:34:29.524Z,23.40
2018-07-22T14:36:57.998Z,23.30
2018-07-22T14:39:26.515Z,23.00
2018-07-22T14:41:55.109Z,22.90
2018-07-22T14:44:23.893Z,22.60
2018-07-22T14:46:52.692Z,22.50
2018-07-22T14:49:21.273Z,22.60
2018-07-22T14:51:49.855Z,22.60
2018-07-22T14:54:18.484Z,22.80
2018-07-22T14:56:53.887Z,22.80
2018-07-22T14:59:22.481Z,23.10
2018-07-22T15:01:50.987Z,23.00
2018-07-22T15:04:19.582Z,23.00
2018-07-22T15:06:48.147Z,23.00
2018-07-22T15:09:16.755Z,23.00
2018-07-22T15:11:45.298Z,22.90
2018-07-22T15:14:14.009Z,23.00
2018-07-22T15:16:42.661Z,22.90
2018-07-22T15:19:11.269Z,22.80
2018-07-22T15:21:39.851Z,23.00
2018-07-22T15:24:08.392Z,22.90
2018-07-22T15:26:36.935Z,22.90
2018-07-22T15:29:05.544Z,22.80
2018-07-22T15:31:34.094Z,22.60
2018-07-22T15:34:02.745Z,22.60
2018-07-22T15:36:31.380Z,22.80
2018-07-22T15:39:00.062Z,22.70
2018-07-22T15:41:31.463Z,22.70
2018-07-22T15:44:00.127Z,22.70
2018-07-22T15:46:28.669Z,22.70
2018-07-22T15:48:57.165Z,22.70
2018-07-22T15:51:25.702Z,22.70
2018-07-22T15:53:54.221Z,22.80
2018-07-22T15:56:23.182Z,22.70
2018-07-22T15:58:51.715Z,22.40
2018-07-22T16:01:20.277Z,22.30
2018-07-22T16:03:48.915Z,22.20
2018-07-22T16:08:45.678Z,22.10
2018-07-22T16:11:14.264Z,22.20
2018-07-22T16:13:42.906Z,22.10
2018-07-22T16:16:11.470Z,22.00
2018-07-22T16:18:40.013Z,22.00
2018-07-22T16:21:08.718Z,21.90
2018-07-22T16:23:37.328Z,21.80
2018-07-22T16:26:06.248Z,21.70
2018-07-22T16:28:34.964Z,21.70
2018-07-22T16:36:00.045Z,21.60
2018-07-22T16:38:28.692Z,21.60
2018-07-22T16:40:57.267Z,21.50
2018-07-22T16:45:54.124Z,21.40
2018-07-22T16:48:22.677Z,21.30
2018-07-22T16:50:51.270Z,21.20
2018-07-22T16:53:19.858Z,21.20
2018-07-22T16:55:48.395Z,21.20
2018-07-22T16:58:16.836Z,21.10
2018-07-22T17:00:45.467Z,21.00
2018-07-22T17:03:13.924Z,20.90
2018-07-22T17:05:42.451Z,21.00
2018-07-22T17:08:10.963Z,21.00
2018-07-22T17:10:39.639Z,21.00
2018-07-22T17:13:08.136Z,20.80
2018-07-22T17:15:36.849Z,20.80
2018-07-22T17:18:05.943Z,20.80
2018-07-22T17:20:34.624Z,20.70
2018-07-22T17:23:03.289Z,20.60
2018-07-22T17:25:31.950Z,20.60
2018-07-22T17:28:00.617Z,20.50
2018-07-22T17:30:29.314Z,20.50
2018-07-22T17:32:58.039Z,20.50
2018-07-22T17:35:26.618Z,20.40
2018-07-22T17:37:55.238Z,20.30
2018-07-22T17:40:23.811Z,20.20
2018-07-22T17:42:52.340Z,20.20
2018-07-22T17:45:20.984Z,20.20
2018-07-22T17:47:49.584Z,20.20
2018-07-22T17:50:18.338Z,20.20
2018-07-22T17:52:47.014Z,20.20
2018-07-22T17:55:15.679Z,20.20
2018-07-22T18:02:46.892Z,20.10
2018-07-22T18:05:15.837Z,20.20
2018-07-22T18:07:44.603Z,20.10
2018-07-22T18:10:13.112Z,20.10
2018-07-22T18:12:41.664Z,20.10
2018-07-22T18:15:10.392Z,20.10
2018-07-22T18:17:38.938Z,20.00
2018-07-22T18:20:07.555Z,20.00
2018-07-22T18:22:36.137Z,19.90
2018-07-22T18:25:05.004Z,19.80
2018-07-22T18:27:33.600Z,19.80
2018-07-22T18:30:02.219Z,19.70
2018-07-22T18:32:30.792Z,19.70
2018-07-22T18:34:59.425Z,19.60
2018-07-22T18:37:28.059Z,19.50
2018-07-22T18:39:56.797Z,19.50
2018-07-22T18:42:25.739Z,19.50
2018-07-22T18:44:54.761Z,19.40
2018-07-22T18:47:23.701Z,19.40
2018-07-22T18:49:52.652Z,19.30
2018-07-22T18:52:21.766Z,19.30
2018-07-22T18:54:51.109Z,19.30
2018-07-22T18:57:19.886Z,19.20
2018-07-22T18:59:48.677Z,19.30
2018-07-22T19:02:17.494Z,19.20
2018-07-22T19:04:46.571Z,19.30
2018-07-22T19:07:15.173Z,19.20
2018-07-22T19:09:43.693Z,19.20
2018-07-22T19:12:12.368Z,19.20
2018-07-22T19:14:40.994Z,19.20
2018-07-22T19:17:09.827Z,19.20
2018-07-22T19:19:38.536Z,19.20
2018-07-22T19:22:07.189Z,19.10
2018-07-22T19:24:35.926Z,19.10
2018-07-22T19:27:06.106Z,19.10
2018-07-22T19:29:35.747Z,19.00
2018-07-22T19:32:04.413Z,19.00
2018-07-22T19:34:33.991Z,18.90
2018-07-22T19:37:02.612Z,19.00
2018-07-22T19:39:31.515Z,18.90
2018-07-22T19:42:00.253Z,18.90
2018-07-22T19:44:28.877Z,18.90
2018-07-22T19:46:57.618Z,18.90
2018-07-22T19:49:26.435Z,18.90
2018-07-22T19:51:55.431Z,18.90
2018-07-22T19:54:24.085Z,18.90
2018-07-22T19:56:52.730Z,18.90
2018-07-22T19:59:21.520Z,18.80
2018-07-22T20:04:18.591Z,18.80
2018-07-22T20:06:47.323Z,18.70
2018-07-22T20:09:16.500Z,18.70
2018-07-22T20:11:45.594Z,18.60
2018-07-22T20:14:14.206Z,18.60
2018-07-22T20:16:42.906Z,18.50
2018-07-22T20:19:11.514Z,18.60
2018-07-22T20:24:08.612Z,18.50
2018-07-22T20:26:37.312Z,18.50
2018-07-22T20:29:05.941Z,18.50
2018-07-22T20:31:34.485Z,18.40
2018-07-22T20:34:03.167Z,18.40
2018-07-22T20:36:31.783Z,18.40
2018-07-22T20:39:00.363Z,18.50
2018-07-22T20:41:28.897Z,18.50
2018-07-22T20:43:57.422Z,18.50
2018-07-22T20:46:26.003Z,18.50
2018-07-22T20:48:54.622Z,18.50
2018-07-22T20:53:51.509Z,18.40
2018-07-22T20:56:20.061Z,18.40
2018-07-22T20:58:48.584Z,18.40
2018-07-22T21:01:17.154Z,18.40
2018-07-22T21:03:45.759Z,18.40
2018-07-22T21:06:14.348Z,18.40
2018-07-22T21:08:43.020Z,18.40
2018-07-22T21:11:11.954Z,18.40
2018-07-22T21:13:40.650Z,18.40
2018-07-22T21:16:09.636Z,18.30
2018-07-22T21:18:38.227Z,18.30
2018-07-22T21:21:07.017Z,18.30
2018-07-22T21:23:35.579Z,18.30
2018-07-22T21:26:04.096Z,18.30
2018-07-22T21:28:32.616Z,18.30
2018-07-22T21:31:01.187Z,18.30
2018-07-22T21:33:29.769Z,18.40
2018-07-22T21:35:58.275Z,18.30
2018-07-22T21:38:26.789Z,18.30
2018-07-22T21:40:55.318Z,18.30
2018-07-22T21:43:23.795Z,18.30
2018-07-22T21:45:52.371Z,18.30
2018-07-22T21:48:20.902Z,18.20
2018-07-22T21:50:49.428Z,18.20
2018-07-22T21:53:17.939Z,18.20
2018-07-22T21:55:46.518Z,18.20
2018-07-22T21:58:15.263Z,18.20
2018-07-22T22:00:44.259Z,18.20
2018-07-22T22:03:12.900Z,18.20
2018-07-22T22:05:41.410Z,18.20
2018-07-22T22:08:10.223Z,18.20
2018-07-22T22:10:38.653Z,18.20
2018-07-22T22:13:07.155Z,18.10
2018-07-22T22:15:35.671Z,18.10
2018-07-22T22:18:04.968Z,18.10
2018-07-22T22:20:33.753Z,18.10
2018-07-22T22:23:02.196Z,18.00
2018-07-22T22:25:30.667Z,18.10
2018-07-22T22:27:59.133Z,18.00
2018-07-22T22:30:27.596Z,18.00
2018-07-22T22:32:56.019Z,18.00
2018-07-22T22:35:25.019Z,18.00
2018-07-22T22:37:53.558Z,18.00
2018-07-22T22:40:22.089Z,18.00
2018-07-22T22:42:50.564Z,17.90
2018-07-22T22:47:47.171Z,17.90
2018-07-22T22:50:15.666Z,17.90
2018-07-22T22:52:44.182Z,17.90
2018-07-22T22:55:12.631Z,17.90
2018-07-22T22:57:51.229Z,17.90
2018-07-22T23:00:19.817Z,17.90
2018-07-22T23:02:48.308Z,17.80
2018-07-22T23:05:16.754Z,17.80
2018-07-22T23:07:45.170Z,17.80
2018-07-22T23:10:13.631Z,17.80
2018-07-22T23:12:42.160Z,17.80
2018-07-22T23:15:10.613Z,17.80
2018-07-22T23:17:39.003Z,17.80
2018-07-22T23:20:07.431Z,17.80
2018-07-22T23:22:35.857Z,17.80
2018-07-22T23:25:04.383Z,17.80
2018-07-22T23:27:32.880Z,17.80
2018-07-22T23:30:01.347Z,17.80
2018-07-22T23:32:29.854Z,17.90
2018-07-22T23:34:58.255Z,17.90
2018-07-22T23:37:26.705Z,17.80
2018-07-22T23:39:55.162Z,17.90
2018-07-22T23:42:23.586Z,17.80
2018-07-22T23:44:52.025Z,17.90
2018-07-22T23:47:20.426Z,17.90
2018-07-22T23:49:48.902Z,17.80
2018-07-22T23:52:17.357Z,17.80
2018-07-22T23:54:45.837Z,17.80
2018-07-22T23:57:14.318Z,17.80
2018-07-22T23:59:42.766Z,17.80
